Time;durP1;ratioP1;P1;durP2;ratioP2;P2;SDS_P1;SDS_P2;PMS_P1;PMS_P2;Temp;Humidity;BMP_temperature;BMP_pressure;BME280_temperature;BME280_humidity;BME280_pressure;Samples;Min_cycle;Max_cycle;Signal;HPM_P1;HPM_P2
2021/04/11 00:02:02;;;;;;;57.72;37.50;;;;;;;5.83;100.00;100652.75;4946968;28;20456;-69
2021/04/11 00:04:29;;;;;;;64.20;41.30;;;;;;;5.77;100.00;100642.53;4980017;28;20062;-70
2021/04/11 00:06:56;;;;;;;54.83;36.67;;;;;;;5.86;100.00;100639.56;4943109;28;20046;-68
2021/04/11 00:09:24;;;;;;;58.33;40.03;;;;;;;5.83;100.00;100637.06;4961519;28;20089;-68
2021/04/11 00:11:51;;;;;;;57.63;38.78;;;;;;;5.87;100.00;100628.19;4985158;28;20125;-68
2021/04/11 00:14:18;;;;;;;57.55;37.75;;;;;;;5.85;100.00;100635.22;4958854;28;20066;-69
2021/04/11 00:16:45;;;;;;;62.63;39.17;;;;;;;5.83;100.00;100630.06;4985729;28;20516;-69
2021/04/11 00:19:12;;;;;;;55.47;36.63;;;;;;;5.81;100.00;100626.69;4984499;28;20129;-69
2021/04/11 00:21:39;;;;;;;62.22;41.83;;;;;;;5.77;100.00;100625.09;4967128;28;20587;-68
2021/04/11 00:24:06;;;;;;;60.50;41.20;;;;;;;5.83;100.00;100619.63;4970416;28;20540;-71
2021/04/11 00:26:33;;;;;;;54.90;39.08;;;;;;;5.80;100.00;100624.13;4969393;28;20189;-71
2021/04/11 00:29:02;;;;;;;61.85;41.50;;;;;;;5.80;100.00;100614.50;4976155;28;20082;-69
2021/04/11 00:31:29;;;;;;;61.15;39.80;;;;;;;5.82;100.00;100615.31;4975459;28;20521;-69
2021/04/11 00:33:56;;;;;;;62.88;42.88;;;;;;;5.89;100.00;100617.69;4975291;28;20535;-69
2021/04/11 00:36:23;;;;;;;61.25;40.92;;;;;;;5.86;100.00;100608.22;4971292;28;20058;-69
2021/04/11 00:38:50;;;;;;;67.35;43.80;;;;;;;5.82;100.00;100607.47;4971595;28;20129;-68
2021/04/11 00:41:20;;;;;;;61.15;41.17;;;;;;;5.90;100.00;100608.91;4977695;28;20089;-69
2021/04/11 00:43:48;;;;;;;63.85;44.17;;;;;;;5.78;100.00;100607.66;4955761;28;20125;-69
2021/04/11 00:46:20;;;;;;;64.20;43.33;;;;;;;5.82;100.00;100604.03;4956757;28;20082;-69
2021/04/11 00:48:48;;;;;;;65.45;42.42;;;;;;;5.87;100.00;100596.84;4954156;28;20058;-69
2021/04/11 00:51:18;;;;;;;66.85;43.42;;;;;;;5.92;100.00;100594.94;4964870;28;20065;-69
2021/04/11 00:53:45;;;;;;;68.97;44.67;;;;;;;5.88;100.00;100592.47;4984424;28;20061;-69
2021/04/11 00:56:13;;;;;;;66.53;44.95;;;;;;;5.87;100.00;100591.63;4969725;28;20151;-67
2021/04/11 00:58:40;;;;;;;66.63;46.45;;;;;;;5.82;100.00;100590.97;4941718;28;20047;-69
2021/04/11 01:01:08;;;;;;;69.68;45.50;;;;;;;5.89;100.00;100584.56;4973772;28;20061;-69
2021/04/11 01:03:37;;;;;;;67.05;44.17;;;;;;;5.87;100.00;100582.94;4944839;28;20249;-68
2021/04/11 01:06:11;;;;;;;69.55;46.53;;;;;;;5.88;100.00;100580.25;4961153;28;20051;-70
2021/04/11 01:08:38;;;;;;;68.53;45.95;;;;;;;5.87;100.00;100572.50;4961401;28;20141;-69
2021/04/11 01:11:16;;;;;;;72.85;46.17;;;;;;;5.86;100.00;100574.25;4955002;28;20624;-68
2021/04/11 01:13:46;;;;;;;72.43;47.00;;;;;;;5.88;100.00;100566.34;4964220;28;20050;-69
2021/04/11 01:16:13;;;;;;;76.30;48.38;;;;;;;5.81;100.00;100561.38;4965559;28;20051;-70
2021/04/11 01:18:41;;;;;;;72.32;48.92;;;;;;;5.80;100.00;100564.03;4965488;28;20074;-69
2021/04/11 01:21:33;;;;;;;67.63;47.90;;;;;;;5.85;100.00;100567.31;4956496;28;20149;-70
2021/04/11 01:24:22;;;;;;;69.13;46.55;;;;;;;5.90;100.00;100568.00;4958197;28;20054;-67
2021/04/11 01:26:50;;;;;;;73.57;49.72;;;;;;;5.88;100.00;100564.56;4961682;28;20042;-68
2021/04/11 01:29:18;;;;;;;75.25;49.42;;;;;;;5.83;100.00;100558.69;4943715;28;20054;-69
2021/04/11 01:31:45;;;;;;;71.35;50.00;;;;;;;5.91;100.00;100564.47;4955873;28;20077;-69
2021/04/11 01:34:12;;;;;;;73.45;50.63;;;;;;;5.88;100.00;100558.50;4983208;28;20663;-68
2021/04/11 01:36:43;;;;;;;69.65;49.28;;;;;;;5.88;100.00;100555.91;4948937;28;20058;-68
2021/04/11 01:39:17;;;;;;;71.60;48.78;;;;;;;5.88;100.00;100543.69;4948082;28;20580;-69
2021/04/11 01:41:45;;;;;;;75.32;50.83;;;;;;;5.86;100.00;100542.06;4978218;28;20062;-69
2021/04/11 01:44:15;;;;;;;78.18;51.85;;;;;;;5.89;100.00;100536.69;4963646;28;20134;-68
2021/04/11 01:46:42;;;;;;;82.38;52.60;;;;;;;5.82;100.00;100530.88;4976366;23;20419;-67
2021/04/11 01:49:09;;;;;;;77.93;51.28;;;;;;;5.80;100.00;100543.97;4954820;28;20591;-67
2021/04/11 01:51:38;;;;;;;78.10;52.20;;;;;;;5.86;100.00;100537.69;4962283;28;20067;-67
2021/04/11 01:54:10;;;;;;;81.30;54.28;;;;;;;5.86;100.00;100522.00;4954167;28;20047;-67
2021/04/11 01:56:42;;;;;;;80.45;54.72;;;;;;;5.87;100.00;100522.84;4981929;28;20138;-66
2021/04/11 01:59:11;;;;;;;86.28;52.25;;;;;;;5.89;100.00;100528.84;4960698;28;20479;-66
2021/04/11 02:01:39;;;;;;;79.95;55.20;;;;;;;5.86;100.00;100522.00;4980136;28;20057;-66
2021/04/11 02:04:07;;;;;;;84.97;56.00;;;;;;;5.85;100.00;100507.22;4974525;28;20911;-67
2021/04/11 02:06:35;;;;;;;92.35;57.95;;;;;;;5.83;100.00;100512.53;4961937;28;20137;-66
2021/04/11 02:09:17;;;;;;;85.88;57.50;;;;;;;5.77;100.00;100494.50;4957105;28;20138;-67
2021/04/11 02:11:46;;;;;;;92.05;56.97;;;;;;;5.89;100.00;100494.88;4957671;28;20627;-68
2021/04/11 02:14:13;;;;;;;82.32;56.55;;;;;;;5.85;100.00;100494.16;4974656;28;21140;-67
2021/04/11 02:16:40;;;;;;;88.18;56.53;;;;;;;5.87;100.00;100487.13;4965446;28;20051;-68
2021/04/11 02:19:14;;;;;;;82.63;55.97;;;;;;;5.90;100.00;100492.22;4962833;28;20035;-67
2021/04/11 02:21:42;;;;;;;86.40;54.88;;;;;;;5.88;100.00;100486.19;4983657;28;20512;-66
2021/04/11 02:24:10;;;;;;;89.15;56.38;;;;;;;5.88;100.00;100480.97;4960266;28;20537;-67
2021/04/11 02:26:38;;;;;;;89.88;58.65;;;;;;;5.88;100.00;100483.59;4961857;28;20374;-67
2021/04/11 02:29:19;;;;;;;91.82;59.63;;;;;;;5.84;100.00;100476.78;4965389;28;20085;-66
2021/04/11 02:31:46;;;;;;;93.38;60.50;;;;;;;5.77;100.00;100465.75;4963504;28;20450;-69
2021/04/11 02:34:20;;;;;;;87.35;58.28;;;;;;;5.83;100.00;100460.28;4976437;28;20106;-67
2021/04/11 02:36:51;;;;;;;87.40;58.28;;;;;;;5.86;100.00;100458.47;4981790;28;20129;-65
2021/04/11 02:39:22;;;;;;;93.55;61.40;;;;;;;5.84;100.00;100451.50;4990908;28;20056;-68
2021/04/11 02:41:49;;;;;;;98.18;61.75;;;;;;;5.81;100.00;100459.50;4968473;28;20122;-67
2021/04/11 02:44:17;;;;;;;88.20;60.55;;;;;;;5.83;100.00;100449.81;4963627;28;20134;-66
2021/04/11 02:46:44;;;;;;;94.07;61.65;;;;;;;5.83;100.00;100459.44;4985618;28;20055;-66
2021/04/11 02:49:18;;;;;;;91.60;60.67;;;;;;;5.93;100.00;100445.09;4967185;28;20087;-67
2021/04/11 02:51:46;;;;;;;94.95;61.03;;;;;;;5.89;100.00;100448.69;4950705;28;20138;-66
2021/04/11 02:54:15;;;;;;;98.43;61.38;;;;;;;5.92;100.00;100435.56;4962517;28;20539;-64
2021/04/11 02:56:43;;;;;;;83.90;60.05;;;;;;;5.95;100.00;100442.44;4967354;28;20050;-67
2021/04/11 02:59:12;;;;;;;91.32;59.90;;;;;;;5.88;100.00;100431.34;4963259;28;20138;-67
2021/04/11 03:01:43;;;;;;;98.25;63.30;;;;;;;5.89;100.00;100432.19;4949027;28;20139;-67
2021/04/11 03:04:16;;;;;;;101.20;63.70;;;;;;;5.83;100.00;100434.16;4961550;28;20537;-66
2021/04/11 03:06:48;;;;;;;94.03;63.78;;;;;;;5.85;100.00;100428.84;4964116;28;20064;-67
2021/04/11 03:09:19;;;;;;;96.57;63.22;;;;;;;5.92;100.00;100421.66;4943782;28;20127;-66
2021/04/11 03:11:52;;;;;;;95.13;60.50;;;;;;;5.90;100.00;100421.69;4944855;28;20182;-65
2021/04/11 03:14:23;;;;;;;97.82;63.38;;;;;;;5.84;100.00;100417.56;4969522;28;20046;-67
2021/04/11 03:16:50;;;;;;;94.35;60.78;;;;;;;5.96;100.00;100416.22;4971691;28;20597;-67
2021/04/11 03:19:29;;;;;;;98.25;65.30;;;;;;;5.84;100.00;100408.88;4961729;28;20043;-68
2021/04/11 03:21:56;;;;;;;91.88;59.47;;;;;;;5.95;100.00;100409.31;4953814;28;20137;-67
2021/04/11 03:24:23;;;;;;;96.88;63.85;;;;;;;5.91;100.00;100399.88;4963992;28;20202;-67
2021/04/11 03:27:06;;;;;;;98.80;62.83;;;;;;;5.91;100.00;100397.25;4978603;28;20520;-69
2021/04/11 03:29:38;;;;;;;90.70;61.72;;;;;;;5.88;100.00;100392.16;4962022;28;20529;-66
2021/04/11 03:32:23;;;;;;;92.38;62.92;;;;;;;5.90;100.00;100392.94;4973907;28;20456;-66
2021/04/11 03:34:51;;;;;;;98.13;63.75;;;;;;;5.91;100.00;100389.41;4956455;28;20085;-67
2021/04/11 03:37:19;;;;;;;96.75;62.67;;;;;;;5.96;100.00;100386.63;4964669;28;20077;-67
2021/04/11 03:39:46;;;;;;;96.07;63.38;;;;;;;5.94;100.00;100386.69;4957309;28;20137;-67
2021/04/11 03:42:15;;;;;;;87.95;59.75;;;;;;;5.92;100.00;100385.91;4980472;28;20055;-68
2021/04/11 03:44:43;;;;;;;90.97;60.15;;;;;;;5.93;100.00;100387.59;4972798;28;20302;-67
2021/04/11 03:47:21;;;;;;;92.00;62.90;;;;;;;5.91;100.00;100384.19;4959042;28;20125;-66
2021/04/11 03:50:03;;;;;;;92.10;60.92;;;;;;;5.96;100.00;100395.31;4945450;28;20050;-68
2021/04/11 03:52:43;;;;;;;93.63;61.70;;;;;;;5.95;100.00;100396.25;4964210;28;20161;-68
2021/04/11 03:55:15;;;;;;;97.95;60.58;;;;;;;5.99;100.00;100399.53;4950825;28;20050;-66
2021/04/11 03:57:50;;;;;;;96.18;60.53;;;;;;;5.96;100.00;100397.94;4953273;28;20039;-69
2021/04/11 04:00:21;;;;;;;98.00;62.42;;;;;;;6.01;100.00;100393.34;4942683;28;20145;-68
2021/04/11 04:02:51;;;;;;;97.18;62.28;;;;;;;5.98;100.00;100392.63;4966335;28;20062;-66
2021/04/11 04:05:22;;;;;;;90.60;61.83;;;;;;;5.97;100.00;100388.31;4961965;28;20062;-67
2021/04/11 04:07:51;;;;;;;94.82;62.63;;;;;;;5.97;100.00;100380.47;4956643;28;20457;-69
2021/04/11 04:10:20;;;;;;;95.40;65.93;;;;;;;5.93;100.00;100385.00;4969983;28;20058;-67
2021/04/11 04:12:56;;;;;;;91.72;60.20;;;;;;;6.00;100.00;100373.38;4941995;28;20358;-67
2021/04/11 04:15:34;;;;;;;89.53;59.40;;;;;;;6.01;100.00;100380.28;4976923;28;20062;-67
2021/04/11 04:18:18;;;;;;;90.28;59.45;;;;;;;6.01;100.00;100375.06;4969006;28;20047;-66
2021/04/11 04:20:55;;;;;;;93.32;59.95;;;;;;;5.98;100.00;100369.13;4944082;28;20444;-68
2021/04/11 04:23:43;;;;;;;88.22;59.22;;;;;;;5.98;100.00;100369.13;4963741;28;20142;-66
2021/04/11 04:26:27;;;;;;;89.05;62.03;;;;;;;6.07;100.00;100369.53;4984425;28;20517;-66
2021/04/11 04:29:15;;;;;;;86.28;59.85;;;;;;;6.07;100.00;100361.72;4973286;28;20093;-66
2021/04/11 04:32:11;;;;;;;91.97;60.25;;;;;;;5.98;100.00;100364.72;4976042;28;20144;-68
2021/04/11 04:34:39;;;;;;;89.05;59.25;;;;;;;6.05;100.00;100360.94;4953053;28;20050;-67
2021/04/11 04:37:31;;;;;;;89.55;60.22;;;;;;;6.00;100.00;100362.91;4969348;28;20177;-66
2021/04/11 04:40:06;;;;;;;98.13;61.53;;;;;;;6.04;100.00;100358.41;4973808;28;20061;-67
2021/04/11 04:42:55;;;;;;;95.82;59.92;;;;;;;6.05;100.00;100370.56;4962957;28;20050;-67
2021/04/11 04:45:28;;;;;;;89.18;59.47;;;;;;;6.04;100.00;100363.63;4958887;28;20542;-67
2021/04/11 04:48:03;;;;;;;90.90;59.22;;;;;;;6.06;100.00;100359.19;4939692;28;20050;-68
2021/04/11 04:50:35;;;;;;;94.38;59.60;;;;;;;6.11;100.00;100362.44;4978044;28;20529;-66
2021/04/11 04:53:18;;;;;;;94.97;60.78;;;;;;;6.08;100.00;100358.19;4961768;28;20472;-68
2021/04/11 04:55:48;;;;;;;93.43;58.03;;;;;;;6.09;100.00;100361.66;4961427;28;20154;-68
2021/04/11 04:58:18;;;;;;;91.68;59.92;;;;;;;6.16;100.00;100367.44;4968749;28;20071;-66
2021/04/11 05:00:51;;;;;;;85.57;56.70;;;;;;;6.26;100.00;100364.38;4961605;28;20079;-66
2021/04/11 05:03:35;;;;;;;89.68;60.88;;;;;;;6.20;100.00;100369.84;4949572;28;20046;-67
2021/04/11 05:06:06;;;;;;;91.38;58.70;;;;;;;6.23;100.00;100371.50;4954648;28;20133;-66
2021/04/11 05:08:48;;;;;;;88.40;59.10;;;;;;;6.23;100.00;100364.50;4977857;28;20404;-66
2021/04/11 05:11:20;;;;;;;92.85;59.13;;;;;;;6.27;100.00;100367.81;4979886;28;20077;-67
2021/04/11 05:13:53;;;;;;;89.22;58.05;;;;;;;6.33;100.00;100371.00;4962935;28;20145;-68
2021/04/11 05:16:25;;;;;;;81.25;55.10;;;;;;;6.39;100.00;100376.88;4970461;28;20082;-66
2021/04/11 05:18:57;;;;;;;84.07;55.65;;;;;;;6.41;100.00;100372.44;4953809;28;20062;-67
2021/04/11 05:21:35;;;;;;;85.05;57.25;;;;;;;6.42;100.00;100371.50;4958308;28;20575;-66
2021/04/11 05:24:07;;;;;;;84.38;57.15;;;;;;;6.44;100.00;100367.91;4972907;28;20055;-67
2021/04/11 05:26:42;;;;;;;85.32;58.33;;;;;;;6.52;100.00;100363.16;4972328;28;20062;-67
2021/04/11 05:29:25;;;;;;;81.82;56.13;;;;;;;6.44;100.00;100352.22;4985569;28;20076;-67
2021/04/11 05:31:55;;;;;;;80.20;55.58;;;;;;;6.52;100.00;100349.22;4961630;28;20134;-67
2021/04/11 05:34:24;;;;;;;83.20;53.85;;;;;;;6.56;100.00;100356.88;4954112;28;20057;-68
2021/04/11 05:36:51;;;;;;;81.05;55.85;;;;;;;6.57;100.00;100348.13;4957066;28;20137;-66
2021/04/11 05:39:38;;;;;;;90.75;55.67;;;;;;;6.67;100.00;100351.16;4971449;28;20142;-66
2021/04/11 05:42:19;;;;;;;85.25;54.38;;;;;;;6.76;100.00;100348.09;4981343;28;20053;-70
2021/04/11 05:44:54;;;;;;;76.25;54.65;;;;;;;6.78;100.00;100341.00;4951384;28;20154;-66
2021/04/11 05:47:49;;;;;;;80.45;54.78;;;;;;;6.84;100.00;100351.19;4956853;28;20057;-66
2021/04/11 05:50:26;;;;;;;79.68;54.03;;;;;;;6.78;100.00;100350.63;4962614;28;20088;-66
2021/04/11 05:53:14;;;;;;;80.20;53.83;;;;;;;6.89;100.00;100352.72;4950891;28;20133;-66
2021/04/11 05:55:49;;;;;;;80.80;54.67;;;;;;;6.79;100.00;100353.16;4961338;28;20074;-67
2021/04/11 05:58:19;;;;;;;84.35;55.10;;;;;;;6.92;100.00;100342.13;4959888;28;20053;-67
2021/04/11 06:01:04;;;;;;;83.20;54.05;;;;;;;6.87;100.00;100334.50;4959770;28;20051;-67
2021/04/11 06:03:34;;;;;;;78.90;53.83;;;;;;;6.80;100.00;100339.19;4953589;28;20054;-68
2021/04/11 06:06:21;;;;;;;83.13;56.35;;;;;;;6.74;100.00;100329.00;4967205;28;20046;-66
2021/04/11 06:08:51;;;;;;;79.75;56.20;;;;;;;6.67;100.00;100321.53;4964671;28;20049;-66
2021/04/11 06:11:29;;;;;;;81.88;54.50;;;;;;;6.58;100.00;100326.28;4961906;28;20544;-67
2021/04/11 06:14:00;;;;;;;83.88;55.45;;;;;;;6.63;100.00;100327.81;4945359;28;20054;-66
2021/04/11 06:16:28;;;;;;;81.30;56.00;;;;;;;6.62;100.00;100324.38;4970826;28;20871;-65
2021/04/11 06:18:55;;;;;;;85.28;55.40;;;;;;;6.64;100.00;100314.66;4963537;28;20598;-66
2021/04/11 06:21:43;;;;;;;76.20;54.40;;;;;;;6.74;100.00;100318.53;4964876;28;20100;-67
2021/04/11 06:24:18;;;;;;;81.75;55.28;;;;;;;6.82;100.00;100311.16;4960387;28;20046;-67
2021/04/11 06:26:51;;;;;;;75.35;52.72;;;;;;;6.86;100.00;100296.16;4980087;28;20109;-67
2021/04/11 06:29:24;;;;;;;76.20;54.00;;;;;;;6.86;100.00;100290.94;4971756;28;20415;-67
2021/04/11 06:32:08;;;;;;;79.20;52.25;;;;;;;7.09;99.91;100295.88;4972096;28;20153;-67
2021/04/11 06:34:39;;;;;;;71.63;50.58;;;;;;;7.25;98.85;100282.00;4956195;28;20540;-67
2021/04/11 06:37:10;;;;;;;80.88;52.13;;;;;;;7.29;98.47;100284.41;4948134;28;20101;-67
2021/04/11 06:39:44;;;;;;;75.00;51.17;;;;;;;7.50;97.39;100289.47;4960456;28;20138;-68
2021/04/11 06:42:39;;;;;;;69.05;48.28;;;;;;;7.60;96.90;100285.44;4965192;28;20113;-68
2021/04/11 06:45:29;;;;;;;70.00;49.30;;;;;;;7.60;95.70;100285.44;4961069;28;20051;-69
2021/04/11 06:48:21;;;;;;;70.47;47.67;;;;;;;7.67;95.29;100280.75;4956172;28;20488;-69
2021/04/11 06:51:15;;;;;;;75.78;47.40;;;;;;;7.86;94.13;100292.78;4966719;28;20069;-68
2021/04/11 06:54:18;;;;;;;71.40;46.45;;;;;;;7.91;93.30;100281.22;4954197;28;20139;-67
2021/04/11 06:57:22;;;;;;;68.68;44.35;;;;;;;8.21;92.81;100282.19;4977930;28;20065;-67
2021/04/11 07:00:03;;;;;;;64.43;45.10;;;;;;;8.44;91.17;100270.47;4985126;28;20038;-66
2021/04/11 07:03:08;;;;;;;72.25;45.08;;;;;;;8.73;89.80;100271.44;4965156;28;20073;-67
2021/04/11 07:06:08;;;;;;;59.08;43.17;;;;;;;9.27;86.06;100263.91;4977607;28;20110;-69
2021/04/11 07:08:56;;;;;;;64.53;42.20;;;;;;;9.46;85.35;100261.06;4965178;28;20690;-66
2021/04/11 07:11:50;;;;;;;59.30;41.15;;;;;;;9.85;83.29;100259.56;4956587;28;20058;-67
2021/04/11 07:14:34;;;;;;;53.35;37.58;;;;;;;11.91;76.63;100259.13;4971078;28;20539;-67
2021/04/11 07:17:22;;;;;;;48.97;34.97;;;;;;;14.94;63.47;100248.28;4974592;28;20050;-66
2021/04/11 07:20:07;;;;;;;50.25;34.97;;;;;;;14.15;62.86;100250.31;4982345;28;20054;-67
2021/04/11 07:22:49;;;;;;;53.15;34.60;;;;;;;12.10;69.39;100263.09;4980985;28;20450;-71
2021/04/11 07:25:51;;;;;;;48.05;35.83;;;;;;;11.21;73.85;100263.94;4970991;28;20150;-68
2021/04/11 07:28:49;;;;;;;48.75;36.78;;;;;;;11.04;75.62;100257.19;4954687;28;20063;-68
2021/04/11 07:31:45;;;;;;;50.72;35.25;;;;;;;10.72;76.89;100269.84;4975787;28;20218;-67
2021/04/11 07:34:46;;;;;;;49.05;35.30;;;;;;;11.24;75.83;100262.91;4956231;28;21080;-66
2021/04/11 07:37:32;;;;;;;46.75;32.72;;;;;;;15.33;62.00;100259.19;4968326;28;20129;-68
2021/04/11 07:40:09;;;;;;;44.92;30.80;;;;;;;18.21;52.26;100242.75;4971920;28;20449;-66
2021/04/11 07:43:03;;;;;;;42.28;30.88;;;;;;;18.35;49.67;100236.09;4979379;28;20133;-68
2021/04/11 07:45:43;;;;;;;44.88;31.90;;;;;;;16.94;53.29;100237.94;4958551;28;20100;-69
2021/04/11 07:48:22;;;;;;;45.38;31.30;;;;;;;16.29;55.11;100252.66;4960024;28;20129;-69
2021/04/11 07:51:11;;;;;;;40.28;31.63;;;;;;;16.83;53.96;100243.38;4976320;23;20142;-74
2021/04/11 07:53:47;;;;;;;38.17;30.45;;;;;;;17.99;51.22;100239.66;4992087;28;20051;-74
2021/04/11 07:56:43;;;;;;;41.38;29.90;;;;;;;17.35;52.77;100243.91;4988040;28;20146;-72
2021/04/11 07:59:36;;;;;;;43.28;30.00;;;;;;;16.01;56.30;100254.25;4956715;28;20046;-74
2021/04/11 08:02:16;;;;;;;43.35;31.65;;;;;;;15.09;58.82;100251.50;4958915;28;20046;-75
2021/04/11 08:05:11;;;;;;;41.95;30.55;;;;;;;14.28;61.86;100245.72;4973870;28;20129;-74
2021/04/11 08:08:02;;;;;;;39.97;29.95;;;;;;;14.21;63.08;100244.50;4962163;28;20050;-76
2021/04/11 08:10:37;;;;;;;41.00;30.08;;;;;;;14.05;63.24;100247.56;4971440;28;20437;-74
2021/04/11 08:13:09;;;;;;;39.50;28.80;;;;;;;13.86;62.88;100247.31;4974036;28;20133;-73
2021/04/11 08:16:02;;;;;;;40.97;27.42;;;;;;;14.07;63.04;100248.28;4959496;28;20046;-74
2021/04/11 08:19:14;;;;;;;36.10;26.65;;;;;;;14.73;60.90;100245.63;4962703;28;20093;-72
2021/04/11 08:21:49;;;;;;;38.90;26.50;;;;;;;14.31;61.74;100242.81;4935387;28;20058;-73
2021/04/11 08:24:29;;;;;;;33.53;24.95;;;;;;;13.86;62.01;100236.72;4973317;28;20576;-74
2021/04/11 08:27:14;;;;;;;36.95;26.98;;;;;;;13.86;62.69;100236.72;4967513;28;20073;-73
2021/04/11 08:30:11;;;;;;;35.53;24.60;;;;;;;14.33;61.10;100232.94;4976824;28;20054;-76
2021/04/11 08:33:19;;;;;;;33.28;23.23;;;;;;;14.64;59.44;100236.63;4969783;28;20493;-74
2021/04/11 08:36:13;;;;;;;36.65;24.48;;;;;;;14.42;60.22;100220.78;4970817;28;20050;-76
2021/04/11 08:39:17;;;;;;;36.15;24.45;;;;;;;14.44;59.25;100221.47;4950196;28;20123;-76
2021/04/11 08:41:55;;;;;;;36.33;25.15;;;;;;;14.58;59.70;100225.66;4980417;28;20044;-76
2021/04/11 08:44:57;;;;;;;38.13;23.63;;;;;;;14.61;59.70;100233.38;4952861;28;20058;-72
2021/04/11 08:48:07;;;;;;;36.15;22.95;;;;;;;14.31;60.11;100220.78;4953210;28;20258;-78
2021/04/11 08:50:49;;;;;;;35.25;23.33;;;;;;;14.56;60.30;100223.16;4876175;28;20102;-74
2021/04/11 08:53:54;;;;;;;35.45;23.15;;;;;;;15.60;56.71;100218.84;4957430;28;20138;-76
2021/04/11 08:56:47;;;;;;;30.50;22.30;;;;;;;16.04;54.62;100220.31;4975810;28;20062;-74
2021/04/11 08:59:45;;;;;;;35.28;22.38;;;;;;;16.09;53.32;100220.75;4952968;28;20489;-72
2021/04/11 09:02:44;;;;;;;31.73;21.33;;;;;;;16.02;54.29;100213.44;4945926;28;20053;-74
2021/04/11 09:05:32;;;;;;;29.65;20.88;;;;;;;15.97;54.56;100215.66;4951697;28;20531;-73
2021/04/11 09:08:12;;;;;;;28.80;20.52;;;;;;;16.26;53.57;100205.13;4952664;28;20058;-75
2021/04/11 09:11:08;;;;;;;27.10;19.05;;;;;;;16.30;53.02;100198.53;4954041;28;20417;-76
2021/04/11 09:13:54;;;;;;;30.05;19.83;;;;;;;16.44;53.27;100201.66;4951683;28;20055;-76
2021/04/11 09:16:38;;;;;;;;;;;;;;;16.30;54.05;100190.56;4970772;28;20138;-72
2021/04/11 09:19:43;;;;;;;26.13;19.08;;;;;;;16.83;52.08;100184.91;4967016;28;19932;-74
2021/04/11 09:22:32;;;;;;;24.98;18.42;;;;;;;17.26;51.47;100186.25;4969584;28;20086;-74
2021/04/11 09:25:08;;;;;;;26.10;18.75;;;;;;;17.28;50.48;100181.59;4955095;28;20051;-74
2021/04/11 09:28:08;;;;;;;25.02;17.25;;;;;;;17.07;51.05;100184.47;4959599;28;20631;-73
2021/04/11 09:30:44;;;;;;;26.38;17.25;;;;;;;17.37;50.56;100178.06;4952735;28;20050;-75
2021/04/11 09:36:46;;;;;;;;;;;;;;;17.90;48.95;100178.31;4944039;28;20177;-74
2021/04/11 09:39:41;;;;;;;23.10;14.95;;;;;;;17.83;48.32;100182.56;4971710;28;19980;-77
2021/04/11 09:42:46;;;;;;;21.98;15.20;;;;;;;17.61;47.88;100185.56;4951356;28;20135;-74
2021/04/11 09:45:18;;;;;;;26.98;14.82;;;;;;;16.94;50.18;100196.22;4952395;28;20058;-74
2021/04/11 09:48:14;;;;;;;20.10;14.15;;;;;;;16.68;51.42;100195.94;4972558;28;20061;-74
2021/04/11 09:50:58;;;;;;;22.90;15.27;;;;;;;16.17;52.26;100210.28;4949134;28;20138;-73
2021/04/11 09:53:43;;;;;;;20.90;14.07;;;;;;;16.13;52.17;100211.53;4972160;28;20487;-71
2021/04/11 09:56:28;;;;;;;21.83;14.38;;;;;;;15.85;53.75;100213.13;4951566;28;20109;-74
2021/04/11 09:59:09;;;;;;;25.67;15.50;;;;;;;15.44;54.68;100216.66;4969450;28;20157;-76
2021/04/11 10:01:42;;;;;;;27.10;14.55;;;;;;;15.38;55.03;100207.44;4970851;28;20054;-74
2021/04/11 10:04:20;;;;;;;21.00;15.05;;;;;;;15.30;55.24;100198.44;4948478;28;20154;-75
2021/04/11 10:06:52;;;;;;;20.63;14.18;;;;;;;15.39;54.98;100205.59;4970379;28;20061;-75
2021/04/11 10:09:30;;;;;;;23.02;14.73;;;;;;;15.03;56.52;100201.63;4949153;28;20046;-74
2021/04/11 10:12:37;;;;;;;23.25;15.18;;;;;;;15.07;56.43;100197.75;4977262;28;20082;-73
2021/04/11 10:15:14;;;;;;;24.60;14.82;;;;;;;15.24;56.41;100198.97;4960018;28;20078;-75
2021/04/11 10:18:20;;;;;;;25.13;14.88;;;;;;;15.48;55.76;100202.16;4960993;28;20058;-73
2021/04/11 10:21:02;;;;;;;27.37;16.23;;;;;;;15.57;55.00;100189.91;4975547;28;20059;-75
2021/04/11 10:23:34;;;;;;;26.05;15.05;;;;;;;15.50;55.55;100191.44;4975353;28;20577;-73
2021/04/11 10:26:05;;;;;;;19.52;14.50;;;;;;;15.91;54.82;100191.34;4959028;28;20054;-76
2021/04/11 10:28:38;;;;;;;22.05;14.75;;;;;;;16.36;54.17;100179.41;4974375;28;20138;-76
2021/04/11 10:31:39;;;;;;;23.05;14.23;;;;;;;16.76;52.87;100171.34;4960456;28;20147;-75
2021/04/11 10:34:28;;;;;;;21.35;13.90;;;;;;;17.24;51.07;100169.56;4963181;28;20055;-73
2021/04/11 10:37:19;;;;;;;19.38;14.02;;;;;;;17.76;49.07;100169.97;4962474;28;20061;-72
2021/04/11 10:39:51;;;;;;;20.63;12.75;;;;;;;17.62;49.06;100165.94;4958897;28;20579;-74
2021/04/11 10:42:39;;;;;;;22.65;13.85;;;;;;;17.64;49.60;100162.13;4971969;28;20058;-73
2021/04/11 10:45:17;;;;;;;17.95;12.30;;;;;;;17.96;49.04;100161.72;4971342;28;20069;-73
2021/04/11 10:48:14;;;;;;;18.73;12.85;;;;;;;18.11;48.34;100156.75;4973488;28;20059;-72
2021/04/11 10:50:54;;;;;;;20.02;13.13;;;;;;;18.43;46.87;100155.38;4957140;28;20070;-73
2021/04/11 10:53:40;;;;;;;22.33;13.25;;;;;;;18.31;47.93;100162.75;4970199;28;20050;-76
2021/04/11 10:56:26;;;;;;;23.40;12.38;;;;;;;18.34;47.49;100158.97;4935959;28;20505;-75
2021/04/11 10:59:33;;;;;;;19.17;12.70;;;;;;;18.30;47.52;100162.91;4958517;28;20272;-73
2021/04/11 11:02:21;;;;;;;19.38;12.98;;;;;;;18.58;47.44;100166.34;4949711;28;20055;-72
2021/04/11 11:05:03;;;;;;;19.52;12.25;;;;;;;18.07;47.88;100159.84;4970402;28;20106;-74
2021/04/11 11:07:58;;;;;;;19.50;12.88;;;;;;;18.27;48.49;100168.53;4953034;28;20476;-75
2021/04/11 11:10:46;;;;;;;19.17;12.18;;;;;;;18.50;47.84;100159.09;4966462;28;20046;-74
2021/04/11 11:13:25;;;;;;;20.05;12.20;;;;;;;18.30;48.23;100152.25;4956148;28;20059;-72
2021/04/11 11:16:10;;;;;;;18.95;12.23;;;;;;;17.79;49.44;100146.56;4955342;28;20076;-72
2021/04/11 11:19:04;;;;;;;24.03;11.10;;;;;;;17.81;49.77;100146.41;4950097;28;20051;-74
2021/04/11 11:21:52;;;;;;;16.35;10.23;;;;;;;17.64;49.83;100151.50;4958395;28;20133;-77
2021/04/11 11:24:27;;;;;;;15.20;10.88;;;;;;;17.71;49.18;100162.41;4975697;28;20078;-73
2021/04/11 11:27:31;;;;;;;17.52;10.32;;;;;;;17.63;49.60;100155.13;4969006;28;20141;-75
2021/04/11 11:30:35;;;;;;;18.55;11.20;;;;;;;17.70;48.42;100158.06;4944101;29;20074;-71
2021/04/11 11:33:43;;;;;;;17.55;9.55;;;;;;;18.05;47.98;100151.16;4970712;28;20532;-75
2021/04/11 11:36:15;;;;;;;20.25;9.52;;;;;;;18.54;47.55;100154.31;4957082;28;20047;-77
2021/04/11 11:38:50;;;;;;;14.15;9.52;;;;;;;18.75;46.35;100146.84;4974524;28;20061;-75
2021/04/11 11:45:54;;;;;;;18.98;8.65;;;;;;;18.77;46.04;100149.38;4970357;28;20170;-73
2021/04/11 11:48:35;;;;;;;12.13;8.40;;;;;;;18.10;48.05;100146.22;4972317;28;20183;-73
2021/04/11 11:51:11;;;;;;;13.88;9.13;;;;;;;18.35;46.41;100139.31;4932240;28;20139;-74
2021/04/11 11:53:45;;;;;;;14.50;9.23;;;;;;;18.17;46.87;100136.66;4968031;28;20077;-74
2021/04/11 11:56:19;;;;;;;14.73;9.30;;;;;;;18.13;47.33;100135.25;4971811;28;20134;-76
2021/04/11 11:59:12;;;;;;;12.95;8.20;;;;;;;18.11;47.37;100131.94;4949528;28;20158;-75
2021/04/11 12:01:50;;;;;;;14.35;8.65;;;;;;;18.25;47.46;100119.91;4965866;28;20058;-73
2021/04/11 12:04:32;;;;;;;13.05;7.88;;;;;;;18.36;46.34;100131.16;4972197;28;20110;-70
2021/04/11 12:07:03;;;;;;;14.88;7.95;;;;;;;18.40;45.70;100129.03;4949619;28;20837;-74
2021/04/11 12:09:35;;;;;;;13.10;7.43;;;;;;;18.44;46.54;100125.06;4970251;28;20043;-71
2021/04/11 12:12:05;;;;;;;16.30;6.88;;;;;;;18.53;45.48;100125.97;4942932;28;20057;-76
2021/04/11 12:14:50;;;;;;;13.48;7.03;;;;;;;18.59;46.00;100120.84;4964669;28;20102;-72